Logo AVAMET
Benvolgut visitant, si us plau, ingressa Recuperar contrasenya

Inforatge Dénia Madrigueres

Dades diàries. Acumulats / Últims 30 dies disponibles

Data Temperatura (°C) Humitat rel. (%) Pressió rel. (hPa) Vent (km/h) Precipitació
Mínima Mitjana Màxima Amplitud
tèrmica
Mínima Mitjana Màxima Mínima Mitjana Màxima Predom. Mitjana Ràfega
màxima
Total
(mm)
Índex-n
Mínima Mitjana Màxima Mínima Mitjana Màxima n
0 a 1
P0 max
mm 5'
Dades mensuals acumulades fins l'últim dia disponible
07/2019 21,5 23,1 26,9 27,3 27,7 31,8 38,2 16,7 21 67 94 1.009 1.014 1.017   6,3 53,7 1,6
Dades anuals acumulades fins l'últim dia disponible
2019 1,9 13,0 26,9 17,5 12,1 22,0 38,2 36,3 16 65 98 994 1.018 1.035   5,7 64,8 343,4
Últims 30 dies disponibles
19-07-2019 22,2     26,4     30,2 8,0 44 70 85 1.014 1.015 1.017 SSE 7,2 42,6 0,0
18-07-2019 21,8     27,1     31,6 9,8 34 63 84 1.012 1.014 1.016 S 6,9 32,2 0,0
17-07-2019 22,3     27,3     32,3 10,0 33 58 80 1.011 1.014 1.015 S 7,1 40,7 0,0
16-07-2019 23,8     27,3     31,2 7,4 43 66 88 1.013 1.015 1.016 SSE 9,2 45,0 0,0
15-07-2019 24,1     27,7     32,0 7,9 33 68 84 1.010 1.011 1.013 SSE 5,4 35,4 0,0
14-07-2019 23,3     26,4     29,4 6,1 64 78 89 1.010 1.011 1.012 S 6,4 31,5 0,0
13-07-2019 24,7     27,6     33,6 8,9 32 67 81 1.012 1.013 1.015 SE 6,2 37,0 0,0
12-07-2019 22,9     30,2     38,2 15,3 21 44 75 1.011 1.014 1.016 SSE 6,2 37,0 0,0
11-07-2019 21,5     27,8     34,2 12,7 35 57 83 1.012 1.014 1.015 SSE 7,2 40,7 0,0
10-07-2019 22,7     26,8     31,3 8,6 41 65 84 1.012 1.014 1.016 S 6,9 35,4 0,0
09-07-2019 22,7     27,2     31,2 8,5 39 61 89 1.010 1.011 1.013 SSO 7,0 33,9 0,0
08-07-2019 24,5     26,4     28,6 4,1 65 78 89 1.010 1.011 1.014 SSE 4,5 40,7 1,6
07-07-2019 26,9     32,3     37,3 10,4 25 48 77 1.009 1.011 1.014 S 8,4 48,3 0,0
06-07-2019 23,8     30,6     38,2 14,4 22 59 91 1.009 1.013 1.015 SSE 6,4 53,7 0,0
05-07-2019 22,7     26,5     30,6 7,9 62 77 90 1.013 1.016 1.017 S 6,2 35,4 0,0
04-07-2019 21,7     25,6     28,9 7,2 71 78 89 1.014 1.016 1.017 S 3,8 22,6 0,0
03-07-2019 21,7     25,4     28,8 7,1 56 76 90 1.013 1.014 1.016 SSE 5,3 27,8 0,0
02-07-2019 22,8     25,4     27,7 4,9 69 81 91 1.014 1.015 1.016 SE 4,9 29,6 0,0
01-07-2019 22,9     25,3     28,3 5,4 70 84 94 1.014 1.016 1.017 SO 5,2 25,9 0,0
30-06-2019 22,9     27,4     30,7 7,8 36 60 93 1.015 1.017 1.018 SSE 3,7 19,3 0,0
29-06-2019 21,6     30,0     37,7 16,1 20 43 68 1.013 1.014 1.015 SSE 4,7 25,9 0,0
28-06-2019 21,6     28,1     34,1 12,5 33 56 90 1.014 1.017 1.019 SSE 5,2 32,2 0,0
27-06-2019 22,0     25,1     28,8 6,8 60 80 94 1.018 1.019 1.021 SO 5,4 24,1 0,0
26-06-2019 22,4     23,9     26,4 4,0 78 86 93 1.017 1.018 1.020 SO 8,2 27,8 0,0
25-06-2019 21,1     23,4     26,2 5,1 73 83 92 1.015 1.016 1.018 SO 5,7 22,2 0,0
24-06-2019 20,3     22,7     25,1 4,8 71 82 92 1.013 1.014 1.016 SO 5,2 25,9 0,0
23-06-2019 19,2     23,0     25,7 6,5 54 74 88 1.013 1.015 1.016 SSE 5,1 31,5 0,0
22-06-2019 20,1     23,1     27,1 7,0 42 76 91 1.014 1.016 1.018 SSE 6,9 31,5 0,0
21-06-2019 20,1     22,2     24,7 4,6 74 84 92 1.013 1.014 1.017 SSO 6,2 22,6 0,0
20-06-2019 20,3     22,3     26,6 6,3 39 81 91 1.011 1.012 1.014 SSO 5,4 24,1 0,0
Últims 13 mesos disponibles
06/2019 13,9 18,5 22,9 23,2 20,9 27,8 37,7 23,8 36 65 86 1.009 1.015 1.022 SSE 6,6 55,6 0,0
05/2019 10,6 15,0 20,6 19,4 18,9 24,1 31,5 20,9 49 67 85 1.005 1.015 1.024 S 5,8 55,6 10,0
04/2019 10,1 12,3 16,7 16,0 14,9 20,2 28,8 18,7 41 68 96 1.000 1.013 1.025 SSO 7,1 56,3 282,0
03/2019 6,9 10,1 16,1 15,1 14,3 19,7 28,0 21,1 28 63 90 1.011 1.023 1.030 S 4,9 53,7 46,0
02/2019 4,9 8,0 12,1 12,8 12,8 17,5 23,7 18,8 38 65 85 996 1.025 1.033 S 4,5 64,8 0,2
01/2019 1,9 7,5 14,1 12,0 12,1 16,5 21,8 19,9 41 61 85 1.003 1.019 1.030 SSO 4,8 63,0 3,6
12/2018 5,8 9,1 12,4 13,7 13,4 18,6 22,8 17,0 53 72 89 1.009 1.025 1.031 SSO 2,5 51,9 31,6
11/2018 7,0 12,2 16,2 15,7 15,9 19,2 24,1 17,1 47 70 94 1.000 1.015 1.023 OSO 4,5 63,0 124,6
10/2018 9,4 15,7 20,7 19,6 15,0 23,7 28,8 19,4 41 71 89 1.000 1.014 1.025 S 4,6 55,6 109,4
09/2018 16,1 21,3 23,7 24,8 24,2 28,6 34,2 18,1 62 77 88 1.012 1.019 1.027 4,6 42,6 78,0
08/2018 19,7 23,7 27,2 27,7 25,8 31,8 37,9 18,2 48 69 83 1.012 1.016 1.021 6,3 48,3 55,0
07/2018 20,8 23,3 25,8 27,6 27,3 32,0 37,6 16,8 39 66 83 1.009 1.014 1.019 6,8 48,3 1,8
06/2018 14,8 19,8 22,9 24,0 21,2 28,3 32,9 18,1 44 64 93 1.009 1.015 1.020 6,3 46,7 32,6
Tots els anys disponibles
2018 2,9 15,2 27,2 19,1 8,3 23,2 37,9 35,0 34 67 94 993 1.016 1.034 S 5,5 66,7 612,4
2017 3,3 15,8 27,2 20,0 12,4 24,3 37,1 33,8 30 69 94 998 1.018 1.035 S 3,2 61,1 453,0
Temperatura (°C)
Humitat relativa (%)
Velocitat del vent i ràfega màxima (km/h)
Direcció del vent (°)
Pressió (hPa)
Precipitació (mm)
Nota sobre les dades: s'avisa a l'usuari de la provisionalitat i no oficialitat d'aquestes dades
Logo AVAMET blanc
Web allotjada a Sollutia
Llicència de Creative CommonsLa web d'AVAMET i els seus continguts estan subjectes a una llicència de
Reconeixement - No Comercial - Compartir igual
Properes estacions: Altea - Club Nàutic d'Altea (Soci), Ares del Maestrat (Ajuntament Soci),      - - - - -      Últimes estacions: Catadau - Urb. Lloma Molina (Inforatge), Ontinyent - El Pilar (Soci), Asp - Poliesportiu (Soci) - - -